Time;durP1;ratioP1;P1;durP2;ratioP2;P2;SDS_P1;SDS_P2;PMS_P1;PMS_P2;Temp;Humidity;BMP_temperature;BMP_pressure;BME280_temperature;BME280_humidity;BME280_pressure;Samples;Min_cycle;Max_cycle;Signal;HPM_P1;HPM_P2
2023/03/07 00:00:14;;;;;;;46.03;26.63;;;;;;;;;;5095362;28;20698;-44
2023/03/07 00:03:02;;;;;;;44.10;26.83;;;;;;;;;;5095585;28;20262;-44
2023/03/07 00:05:30;;;;;;;44.23;26.70;;;;;;;;;;5095403;28;20546;-45
2023/03/07 00:07:58;;;;;;;52.30;28.80;;;;;;;;;;5095453;28;20206;-44
2023/03/07 00:10:25;;;;;;;48.83;27.30;;;;;;;;;;5095339;28;20202;-44
2023/03/07 00:12:52;;;;;;;46.00;26.43;;;;;;;;;;5095957;28;20210;-44
2023/03/07 00:15:19;;;;;;;51.93;28.40;;;;;;;;;;5095510;28;20229;-45
2023/03/07 00:17:46;;;;;;;48.77;26.70;;;;;;;;;;5095001;28;20633;-44
2023/03/07 00:20:14;;;;;;;70.33;36.53;;;;;;;;;;5088661;28;20210;-45
2023/03/07 00:22:42;;;;;;;50.50;32.10;;;;;;;;;;5081129;28;20231;-44
2023/03/07 00:25:09;;;;;;;48.70;28.37;;;;;;;;;;5074720;28;20211;-44
2023/03/07 00:27:36;;;;;;;53.30;29.20;;;;;;;;;;5074699;28;20633;-44
2023/03/07 00:30:04;;;;;;;48.27;29.07;;;;;;;;;;5073804;28;20550;-44
2023/03/07 00:32:31;;;;;;;47.73;28.07;;;;;;;;;;5074551;28;20749;-44
2023/03/07 00:34:59;;;;;;;46.43;26.97;;;;;;;;;;5074881;28;20203;-44
2023/03/07 00:37:26;;;;;;;49.30;28.60;;;;;;;;;;5073981;28;20211;-44
2023/03/07 00:39:54;;;;;;;46.50;26.63;;;;;;;;;;5074971;28;20268;-44
2023/03/07 00:42:21;;;;;;;52.13;26.67;;;;;;;;;;5075059;28;20284;-44
2023/03/07 00:44:48;;;;;;;45.83;26.30;;;;;;;;;;5074650;28;20276;-45
2023/03/07 00:47:15;;;;;;;54.00;30.57;;;;;;;;;;5074728;28;20269;-44
2023/03/07 00:49:43;;;;;;;46.97;27.50;;;;;;;;;;5073930;28;20203;-44
2023/03/07 00:52:10;;;;;;;44.50;26.30;;;;;;;;;;5074714;28;20199;-45
2023/03/07 00:54:38;;;;;;;46.33;27.20;;;;;;;;;;5074472;28;20204;-44
2023/03/07 00:57:05;;;;;;;47.63;26.47;;;;;;;;;;5092637;28;20571;-44
2023/03/07 00:59:32;;;;;;;49.40;27.60;;;;;;;;;;5093994;28;20222;-44
2023/03/07 01:01:59;;;;;;;43.67;26.73;;;;;;;;;;5093645;28;20228;-45
2023/03/07 01:04:27;;;;;;;49.20;25.70;;;;;;;;;;5093902;28;20267;-44
2023/03/07 01:06:54;;;;;;;46.37;26.73;;;;;;;;;;5093688;28;20199;-44
2023/03/07 01:09:22;;;;;;;47.03;26.83;;;;;;;;;;5095262;28;20217;-44
2023/03/07 01:11:50;;;;;;;42.53;25.47;;;;;;;;;;5093877;28;20207;-45
2023/03/07 01:14:17;;;;;;;47.30;26.13;;;;;;;;;;5093872;28;20210;-45
2023/03/07 01:16:44;;;;;;;49.37;28.80;;;;;;;;;;5094560;28;20213;-45
2023/03/07 01:19:12;;;;;;;45.23;25.93;;;;;;;;;;5093976;28;20246;-44
2023/03/07 01:21:41;;;;;;;45.23;27.57;;;;;;;;;;5094545;28;20253;-45
2023/03/07 01:24:12;;;;;;;45.77;27.70;;;;;;;;;;5093796;28;20210;-44
2023/03/07 01:26:40;;;;;;;44.53;26.20;;;;;;;;;;5093959;28;20537;-45
2023/03/07 01:29:09;;;;;;;46.00;26.33;;;;;;;;;;5093752;28;20206;-44
2023/03/07 01:31:36;;;;;;;51.67;27.50;;;;;;;;;;5094257;28;20633;-44
2023/03/07 01:34:04;;;;;;;49.97;27.37;;;;;;;;;;5077092;28;20497;-44
2023/03/07 01:36:36;;;;;;;48.80;27.43;;;;;;;;;;5093822;28;20581;-45
2023/03/07 01:39:12;;;;;;;49.73;27.83;;;;;;;;;;5093547;28;20205;-45
2023/03/07 01:41:54;;;;;;;74.77;35.13;;;;;;;;;;5093266;28;20318;-45
2023/03/07 01:44:26;;;;;;;54.73;30.37;;;;;;;;;;5093689;28;20539;-44
2023/03/07 01:46:58;;;;;;;50.67;28.50;;;;;;;;;;5093334;28;20194;-45
2023/03/07 01:49:43;;;;;;;48.60;28.27;;;;;;;;;;5095747;28;20636;-44
2023/03/07 01:52:14;;;;;;;51.80;28.37;;;;;;;;;;5097283;28;20202;-44
2023/03/07 01:55:23;;;;;;;48.87;26.70;;;;;;;;;;5097285;28;20198;-45
2023/03/07 01:57:54;;;;;;;50.77;27.27;;;;;;;;;;5096140;28;20230;-45
2023/03/07 02:00:27;;;;;;;37.30;21.60;;;;;;;;;;5096912;28;20644;-45
2023/03/07 02:03:03;;;;;;;37.90;21.00;;;;;;;;;;5096842;28;20251;-44
2023/03/07 02:05:36;;;;;;;32.70;17.93;;;;;;;;;;5096750;28;20651;-44
2023/03/07 02:08:07;;;;;;;30.60;17.80;;;;;;;;;;5096861;28;20198;-44
2023/03/07 02:10:35;;;;;;;30.53;16.57;;;;;;;;;;5080351;28;20252;-44
2023/03/07 02:13:02;;;;;;;27.73;15.20;;;;;;;;;;5096652;28;20218;-45
2023/03/07 02:15:31;;;;;;;30.53;14.93;;;;;;;;;;5096731;28;20198;-44
2023/03/07 02:17:59;;;;;;;33.90;18.70;;;;;;;;;;5096058;28;20713;-44
2023/03/07 02:20:34;;;;;;;26.20;14.57;;;;;;;;;;5096786;28;20226;-44
2023/03/07 02:23:03;;;;;;;32.93;18.77;;;;;;;;;;5096681;28;20606;-44
2023/03/07 02:25:35;;;;;;;31.37;17.60;;;;;;;;;;5079930;28;20209;-45
2023/03/07 02:28:03;;;;;;;30.90;16.70;;;;;;;;;;5096537;28;20520;-45
2023/03/07 02:30:31;;;;;;;32.07;16.10;;;;;;;;;;5096382;28;20233;-44
2023/03/07 02:32:58;;;;;;;33.57;17.47;;;;;;;;;;5096243;28;20595;-45
2023/03/07 02:35:26;;;;;;;32.63;18.30;;;;;;;;;;5095978;28;20534;-44
2023/03/07 02:38:00;;;;;;;34.77;18.43;;;;;;;;;;5096347;28;20215;-44
2023/03/07 02:40:30;;;;;;;35.60;18.67;;;;;;;;;;5079536;28;20198;-45
2023/03/07 02:43:00;;;;;;;36.40;19.13;;;;;;;;;;5095853;28;20219;-45
2023/03/07 02:45:28;;;;;;;40.43;20.37;;;;;;;;;;5095998;28;20210;-44
2023/03/07 02:47:55;;;;;;;38.23;19.43;;;;;;;;;;5095918;28;20290;-44
2023/03/07 02:50:22;;;;;;;38.00;21.13;;;;;;;;;;5096920;28;20268;-44
2023/03/07 02:52:51;;;;;;;37.77;20.23;;;;;;;;;;5095687;28;20280;-44
2023/03/07 02:55:18;;;;;;;36.73;19.73;;;;;;;;;;5095917;28;20207;-46
2023/03/07 02:57:55;;;;;;;41.83;20.93;;;;;;;;;;5096210;28;20198;-44
2023/03/07 03:00:23;;;;;;;42.63;21.93;;;;;;;;;;5078574;28;20213;-45
2023/03/07 03:02:50;;;;;;;38.83;20.00;;;;;;;;;;5096307;28;20218;-44
2023/03/07 03:05:19;;;;;;;41.40;21.30;;;;;;;;;;5096249;28;20203;-44
2023/03/07 03:07:46;;;;;;;35.97;19.43;;;;;;;;;;5095723;28;20198;-44
2023/03/07 03:10:13;;;;;;;42.30;20.87;;;;;;;;;;5096267;28;20198;-44
2023/03/07 03:12:40;;;;;;;42.73;22.20;;;;;;;;;;5096182;28;20207;-44
2023/03/07 03:15:09;;;;;;;39.67;21.67;;;;;;;;;;5095271;28;20260;-44
2023/03/07 03:17:37;;;;;;;37.23;19.50;;;;;;;;;;5095140;28;20268;-44
2023/03/07 03:20:10;;;;;;;41.77;21.83;;;;;;;;;;5096399;28;20243;-45
2023/03/07 03:22:39;;;;;;;43.27;22.27;;;;;;;;;;5095112;28;20219;-44
2023/03/07 03:25:09;;;;;;;41.83;21.87;;;;;;;;;;5095477;28;20194;-44
2023/03/07 03:27:40;;;;;;;46.97;23.17;;;;;;;;;;5095491;28;20203;-44
2023/03/07 03:30:10;;;;;;;43.57;21.87;;;;;;;;;;5095222;28;20194;-46
2023/03/07 03:32:38;;;;;;;41.00;21.07;;;;;;;;;;5095228;28;20198;-45
2023/03/07 03:35:08;;;;;;;41.10;20.83;;;;;;;;;;5094954;28;20259;-44
2023/03/07 03:37:35;;;;;;;45.20;22.87;;;;;;;;;;5095134;28;20294;-44
2023/03/07 03:40:12;;;;;;;46.47;23.33;;;;;;;;;;5094765;28;20198;-44
2023/03/07 03:42:41;;;;;;;43.70;21.17;;;;;;;;;;5095033;28;20305;-44
2023/03/07 03:45:09;;;;;;;44.67;22.63;;;;;;;;;;5094725;28;20732;-44
2023/03/07 03:47:37;;;;;;;44.00;20.90;;;;;;;;;;5094928;28;20213;-44
2023/03/07 03:50:05;;;;;;;49.40;23.50;;;;;;;;;;5094922;28;20267;-44
2023/03/07 03:52:34;;;;;;;44.00;21.67;;;;;;;;;;5095632;28;20234;-45
2023/03/07 03:55:03;;;;;;;41.00;21.17;;;;;;;;;;5095684;28;20711;-45
2023/03/07 03:57:30;;;;;;;40.03;21.20;;;;;;;;;;5095594;28;20234;-45
2023/03/07 03:59:57;;;;;;;43.70;22.50;;;;;;;;;;5095650;28;20203;-44
2023/03/07 04:02:25;;;;;;;45.43;24.77;;;;;;;;;;5094580;28;20206;-44
2023/03/07 04:04:53;;;;;;;42.60;23.07;;;;;;;;;;5095485;28;20217;-44
2023/03/07 04:07:21;;;;;;;45.00;22.57;;;;;;;;;;5095198;28;20199;-44
2023/03/07 04:09:48;;;;;;;45.53;23.43;;;;;;;;;;5094192;28;20207;-45
2023/03/07 04:12:16;;;;;;;44.93;22.83;;;;;;;;;;5094260;28;20205;-44
2023/03/07 04:14:43;;;;;;;50.37;22.97;;;;;;;;;;5095034;28;20260;-44
2023/03/07 04:17:11;;;;;;;43.87;22.33;;;;;;;;;;5095350;28;20344;-44
2023/03/07 04:19:38;;;;;;;45.43;23.00;;;;;;;;;;5095256;28;20238;-44
2023/03/07 04:22:06;;;;;;;41.40;21.47;;;;;;;;;;5094098;28;20198;-44
2023/03/07 04:24:34;;;;;;;45.07;22.33;;;;;;;;;;5094242;28;20230;-44
2023/03/07 04:27:02;;;;;;;46.43;23.60;;;;;;;;;;5094915;28;20297;-44
2023/03/07 04:29:30;;;;;;;47.50;23.63;;;;;;;;;;5094604;28;20209;-44
2023/03/07 04:32:03;;;;;;;42.93;21.43;;;;;;;;;;5087646;28;20198;-50
2023/03/07 04:34:30;;;;;;;48.13;23.77;;;;;;;;;;5084136;28;20206;-46
2023/03/07 04:36:58;;;;;;;45.37;23.33;;;;;;;;;;5081084;28;20219;-44
2023/03/07 04:39:26;;;;;;;46.67;23.30;;;;;;;;;;5074247;28;20634;-44
2023/03/07 04:41:53;;;;;;;52.23;25.27;;;;;;;;;;5073574;28;20215;-46
2023/03/07 04:44:22;;;;;;;50.57;26.30;;;;;;;;;;5092526;28;20230;-45
2023/03/07 04:46:49;;;;;;;47.30;24.10;;;;;;;;;;5094388;28;20203;-47
2023/03/07 04:49:16;;;;;;;47.87;23.23;;;;;;;;;;5093737;28;20275;-44
2023/03/07 04:51:43;;;;;;;68.73;31.73;;;;;;;;;;5090363;28;20617;-46
2023/03/07 04:54:13;;;;;;;59.10;31.83;;;;;;;;;;5091867;28;20198;-46
2023/03/07 04:56:41;;;;;;;53.00;27.27;;;;;;;;;;5092169;28;20230;-44
2023/03/07 04:59:10;;;;;;;47.37;24.83;;;;;;;;;;5093003;28;20202;-46
2023/03/07 05:01:37;;;;;;;46.00;23.90;;;;;;;;;;5093241;28;20231;-47
2023/03/07 05:04:05;;;;;;;50.07;24.80;;;;;;;;;;5092857;28;20235;-45
2023/03/07 05:06:32;;;;;;;60.50;27.17;;;;;;;;;;5094338;28;20283;-45
2023/03/07 05:09:00;;;;;;;77.83;32.63;;;;;;;;;;5078292;28;20227;-44
2023/03/07 05:11:27;;;;;;;68.27;28.67;;;;;;;;;;5112820;28;20233;-46
2023/03/07 05:13:55;;;;;;;54.90;25.83;;;;;;;;;;5092995;28;20238;-45
2023/03/07 05:16:22;;;;;;;45.63;24.60;;;;;;;;;;5093446;28;20230;-44
2023/03/07 05:18:50;;;;;;;45.80;24.10;;;;;;;;;;5092067;28;20255;-45
2023/03/07 05:21:18;;;;;;;51.97;24.33;;;;;;;;;;5092482;28;20226;-45
2023/03/07 05:23:45;;;;;;;49.87;25.60;;;;;;;;;;5093672;28;20242;-44
2023/03/07 05:26:12;;;;;;;47.33;24.13;;;;;;;;;;5090648;28;20306;-47
2023/03/07 05:28:40;;;;;;;48.73;23.73;;;;;;;;;;5092144;28;20280;-45
2023/03/07 05:31:07;;;;;;;56.30;27.13;;;;;;;;;;5097221;28;20699;-48
2023/03/07 05:33:35;;;;;;;64.13;27.77;;;;;;;;;;5096327;28;20227;-44
2023/03/07 05:36:03;;;;;;;94.07;34.77;;;;;;;;;;5096639;28;20219;-45
2023/03/07 05:38:32;;;;;;;76.97;29.83;;;;;;;;;;5096456;28;20302;-47
2023/03/07 05:40:59;;;;;;;64.77;35.40;;;;;;;;;;5096277;28;20226;-45
2023/03/07 05:43:26;;;;;;;59.17;32.03;;;;;;;;;;5096747;28;20246;-44
2023/03/07 05:45:54;;;;;;;74.93;35.40;;;;;;;;;;5096300;28;20227;-47
2023/03/07 05:48:21;;;;;;;84.57;41.27;;;;;;;;;;5095730;28;20283;-44
2023/03/07 05:50:48;;;;;;;53.40;26.07;;;;;;;;;;5084951;28;20227;-46
2023/03/07 05:53:17;;;;;;;46.23;23.47;;;;;;;;;;5090436;28;20231;-45
2023/03/07 05:55:45;;;;;;;49.80;24.57;;;;;;;;;;5092377;28;20230;-45
2023/03/07 05:58:14;;;;;;;49.57;24.40;;;;;;;;;;5085445;28;20218;-44
2023/03/07 06:00:43;;;;;;;43.50;23.17;;;;;;;;;;5096104;28;20236;-50
2023/03/07 06:03:11;;;;;;;43.13;23.83;;;;;;;;;;5096238;28;20242;-45
2023/03/07 06:05:38;;;;;;;45.83;22.30;;;;;;;;;;5096466;28;20237;-44
2023/03/07 06:08:06;;;;;;;42.43;21.53;;;;;;;;;;5095710;28;20237;-45
2023/03/07 06:10:33;;;;;;;45.43;22.03;;;;;;;;;;5095366;28;20231;-51
2023/03/07 06:13:03;;;;;;;51.90;24.63;;;;;;;;;;5095966;28;20690;-46
2023/03/07 06:15:30;;;;;;;64.53;29.80;;;;;;;;;;5097082;28;20219;-47
2023/03/07 06:18:03;;;;;;;55.87;28.63;;;;;;;;;;5095224;28;20223;-45
2023/03/07 06:20:30;;;;;;;40.77;22.87;;;;;;;;;;5095375;28;20219;-46
2023/03/07 06:22:59;;;;;;;66.13;27.53;;;;;;;;;;5095043;28;20219;-45
2023/03/07 06:25:26;;;;;;;52.53;24.77;;;;;;;;;;5096504;28;20607;-45
2023/03/07 06:27:59;;;;;;;47.37;22.63;;;;;;;;;;5095683;28;20227;-46
2023/03/07 06:30:28;;;;;;;47.60;23.90;;;;;;;;;;5095494;28;20229;-45
2023/03/07 06:32:56;;;;;;;44.27;23.27;;;;;;;;;;5096123;28;20673;-45
2023/03/07 06:35:23;;;;;;;56.43;27.10;;;;;;;;;;5095472;28;20237;-46
2023/03/07 06:37:51;;;;;;;52.67;25.63;;;;;;;;;;5095718;28;20223;-44
2023/03/07 06:40:18;;;;;;;63.63;29.03;;;;;;;;;;5095366;28;20246;-46
2023/03/07 06:42:45;;;;;;;48.57;24.90;;;;;;;;;;5095123;28;20620;-45
2023/03/07 06:45:12;;;;;;;66.20;32.80;;;;;;;;;;5094983;28;20249;-47
2023/03/07 06:47:40;;;;;;;57.47;28.53;;;;;;;;;;5095292;28;20284;-45
2023/03/07 06:50:09;;;;;;;68.17;33.27;;;;;;;;;;5095114;28;20333;-48
2023/03/07 06:52:37;;;;;;;48.90;25.97;;;;;;;;;;5094717;28;20222;-45
2023/03/07 06:55:05;;;;;;;49.87;26.17;;;;;;;;;;5095995;28;20269;-46
2023/03/07 06:57:33;;;;;;;46.90;22.90;;;;;;;;;;5094840;28;20238;-44
2023/03/07 07:00:03;;;;;;;50.23;24.53;;;;;;;;;;5094923;28;20226;-44
2023/03/07 07:02:32;;;;;;;48.27;24.47;;;;;;;;;;5094814;28;20565;-46
2023/03/07 07:04:59;;;;;;;48.57;23.97;;;;;;;;;;5095415;28;20245;-45
2023/03/07 07:07:29;;;;;;;52.40;24.50;;;;;;;;;;5078080;28;20394;-47
2023/03/07 07:09:57;;;;;;;49.03;24.90;;;;;;;;;;5095095;28;20199;-46
2023/03/07 07:12:25;;;;;;;53.67;25.33;;;;;;;;;;5095587;28;20203;-44
2023/03/07 07:14:54;;;;;;;53.70;26.23;;;;;;;;;;5095185;28;20213;-44
2023/03/07 07:17:21;;;;;;;64.80;30.37;;;;;;;;;;5095136;28;20199;-44
2023/03/07 07:19:48;;;;;;;75.33;31.80;;;;;;;;;;5095376;28;20238;-44
2023/03/07 07:22:16;;;;;;;57.83;28.57;;;;;;;;;;5096403;28;20202;-44
2023/03/07 07:24:44;;;;;;;70.80;29.40;;;;;;;;;;5094920;28;20218;-45
2023/03/07 07:27:11;;;;;;;70.57;30.23;;;;;;;;;;5095187;28;20199;-44
2023/03/07 07:29:39;;;;;;;85.30;35.43;;;;;;;;;;5095190;28;20267;-44
2023/03/07 07:32:08;;;;;;;54.77;26.63;;;;;;;;;;5095029;28;20702;-50
2023/03/07 07:34:35;;;;;;;59.03;27.53;;;;;;;;;;5095254;28;20199;-49
2023/03/07 07:37:03;;;;;;;58.27;26.33;;;;;;;;;;5095074;28;20214;-44
2023/03/07 07:39:30;;;;;;;59.30;27.43;;;;;;;;;;5077967;28;20664;-44
2023/03/07 07:41:58;;;;;;;57.17;26.50;;;;;;;;;;5094937;28;20259;-46
2023/03/07 07:44:29;;;;;;;50.10;24.30;;;;;;;;;;5094049;28;20211;-44
2023/03/07 07:46:59;;;;;;;54.27;25.90;;;;;;;;;;5093943;28;20179;-49
2023/03/07 07:49:26;;;;;;;55.87;26.23;;;;;;;;;;5095863;28;20214;-44
2023/03/07 07:51:54;;;;;;;48.93;24.47;;;;;;;;;;5094924;28;20219;-44
2023/03/07 07:54:22;;;;;;;48.03;23.93;;;;;;;;;;5094846;28;20207;-45
2023/03/07 07:56:49;;;;;;;46.50;24.70;;;;;;;;;;5094160;28;20633;-45
2023/03/07 07:59:18;;;;;;;47.07;23.67;;;;;;;;;;5094146;28;20629;-44
2023/03/07 08:01:45;;;;;;;46.37;24.87;;;;;;;;;;5094630;28;20207;-43
2023/03/07 08:04:12;;;;;;;48.07;23.60;;;;;;;;;;5095259;28;20298;-44
2023/03/07 08:06:40;;;;;;;43.87;23.13;;;;;;;;;;5095450;28;20218;-45
2023/03/07 08:09:07;;;;;;;54.07;26.20;;;;;;;;;;5095291;28;20202;-46
2023/03/07 08:11:35;;;;;;;65.67;32.70;;;;;;;;;;5095245;28;20213;-45
2023/03/07 08:14:02;;;;;;;46.20;24.50;;;;;;;;;;5095283;28;20198;-45
2023/03/07 08:16:30;;;;;;;56.80;25.87;;;;;;;;;;5095552;28;20207;-45
2023/03/07 08:18:57;;;;;;;45.60;24.27;;;;;;;;;;5094975;28;20238;-46
2023/03/07 08:21:25;;;;;;;41.43;22.23;;;;;;;;;;5094949;28;20259;-44
2023/03/07 08:23:53;;;;;;;73.30;33.57;;;;;;;;;;5094978;28;20223;-45
2023/03/07 08:26:20;;;;;;;78.10;33.97;;;;;;;;;;5095136;28;20263;-46
2023/03/07 08:28:47;;;;;;;67.87;31.33;;;;;;;;;;5094779;28;20657;-44
2023/03/07 08:31:22;;;;;;;61.30;30.63;;;;;;;;;;5095109;28;20211;-44
2023/03/07 08:33:50;;;;;;;82.67;38.80;;;;;;;;;;5095277;28;20186;-44
2023/03/07 08:36:18;;;;;;;54.60;32.97;;;;;;;;;;5094853;28;20209;-45
2023/03/07 08:38:51;;;;;;;47.70;28.13;;;;;;;;;;5095004;28;20267;-44
2023/03/07 08:41:20;;;;;;;57.83;27.10;;;;;;;;;;5094792;28;20622;-45
2023/03/07 08:43:48;;;;;;;56.70;29.40;;;;;;;;;;5094549;28;20214;-45
2023/03/07 08:46:15;;;;;;;52.47;26.40;;;;;;;;;;5094794;28;20281;-45
2023/03/07 08:48:43;;;;;;;45.67;24.50;;;;;;;;;;5094758;28;20206;-46
2023/03/07 08:51:13;;;;;;;50.23;25.80;;;;;;;;;;5094640;28;20195;-45
2023/03/07 08:53:42;;;;;;;50.03;24.67;;;;;;;;;;5095187;28;20211;-44
2023/03/07 08:56:13;;;;;;;53.30;25.00;;;;;;;;;;5094881;28;20209;-45
2023/03/07 08:58:40;;;;;;;67.60;32.07;;;;;;;;;;5095278;28;20278;-45
2023/03/07 09:01:09;;;;;;;48.23;24.23;;;;;;;;;;5098801;28;20530;-45
2023/03/07 09:03:36;;;;;;;46.83;25.23;;;;;;;;;;5098711;28;20203;-45
2023/03/07 09:06:04;;;;;;;48.77;25.70;;;;;;;;;;5098618;28;20202;-46
2023/03/07 09:08:31;;;;;;;48.47;24.97;;;;;;;;;;5098893;28;20210;-44
2023/03/07 09:11:04;;;;;;;46.43;25.30;;;;;;;;;;5098832;28;20253;-46
2023/03/07 09:13:31;;;;;;;52.97;27.23;;;;;;;;;;5098732;28;20206;-45
2023/03/07 09:16:05;;;;;;;54.13;25.67;;;;;;;;;;5098395;28;20629;-46
2023/03/07 09:18:33;;;;;;;46.37;25.30;;;;;;;;;;5098231;28;20239;-45
2023/03/07 09:21:02;;;;;;;43.63;24.00;;;;;;;;;;5098605;28;20202;-46
2023/03/07 09:23:29;;;;;;;50.63;25.93;;;;;;;;;;5098768;28;20209;-44
2023/03/07 09:26:04;;;;;;;51.57;27.57;;;;;;;;;;5098114;28;20279;-45
2023/03/07 09:28:31;;;;;;;50.03;29.20;;;;;;;;;;5098220;28;20711;-45
2023/03/07 09:30:59;;;;;;;48.47;28.80;;;;;;;;;;5098129;28;20678;-45
2023/03/07 09:33:26;;;;;;;51.47;27.27;;;;;;;;;;5098257;28;20528;-45
2023/03/07 09:35:53;;;;;;;47.03;25.63;;;;;;;;;;5091657;28;20287;-47
2023/03/07 09:38:20;;;;;;;55.53;26.90;;;;;;;;;;5096926;28;20222;-50
2023/03/07 09:40:48;;;;;;;50.07;24.90;;;;;;;;;;5089929;28;20696;-45
2023/03/07 09:43:20;;;;;;;55.17;26.70;;;;;;;;;;5124349;27;20234;-46
2023/03/07 09:46:31;;;;;;;49.40;26.30;;;;;;;;;;5097249;28;20223;-45
2023/03/07 09:49:19;;;;;;;47.23;26.30;;;;;;;;;;5096982;28;20222;-45
2023/03/07 09:51:51;;;;;;;71.27;33.50;;;;;;;;;;5087262;28;20300;-45
2023/03/07 09:54:20;;;;;;;62.00;34.80;;;;;;;;;;5096372;28;20531;-45
2023/03/07 09:56:58;;;;;;;52.17;28.03;;;;;;;;;;5096928;28;20210;-45
2023/03/07 09:59:41;;;;;;;52.13;27.67;;;;;;;;;;5096786;28;20259;-47
2023/03/07 10:02:31;;;;;;;52.53;27.27;;;;;;;;;;5097549;28;20205;-49
2023/03/07 10:05:07;;;;;;;52.43;26.60;;;;;;;;;;5097712;28;20322;-45
2023/03/07 10:07:35;;;;;;;53.63;27.53;;;;;;;;;;5097966;28;20201;-47
2023/03/07 10:10:17;;;;;;;51.43;27.37;;;;;;;;;;5097468;28;20209;-45
2023/03/07 10:12:50;;;;;;;48.50;26.90;;;;;;;;;;5096944;28;20255;-48
2023/03/07 10:15:41;;;;;;;57.97;28.83;;;;;;;;;;5097552;28;20191;-51
2023/03/07 10:18:40;;;;;;;79.93;37.60;;;;;;;;;;5097140;28;20235;-47
2023/03/07 10:21:27;;;;;;;94.17;43.33;;;;;;;;;;5096778;28;20245;-45
2023/03/07 10:24:21;;;;;;;66.13;35.23;;;;;;;;;;5096565;28;20244;-45
2023/03/07 10:27:08;;;;;;;61.73;33.50;;;;;;;;;;5096407;28;20271;-45
2023/03/07 10:29:44;;;;;;;57.93;31.17;;;;;;;;;;5096990;28;20656;-46
2023/03/07 10:32:38;;;;;;;58.10;29.53;;;;;;;;;;5097569;28;20232;-45
2023/03/07 10:35:15;;;;;;;61.87;32.53;;;;;;;;;;5097103;28;20215;-46
2023/03/07 10:37:51;;;;;;;60.83;30.87;;;;;;;;;;5096943;28;20197;-46
2023/03/07 10:40:29;;;;;;;58.80;31.50;;;;;;;;;;5097116;28;20209;-47
2023/03/07 10:42:57;;;;;;;62.77;32.50;;;;;;;;;;5096117;28;20210;-48
2023/03/07 10:45:29;;;;;;;76.43;39.17;;;;;;;;;;5096880;28;20237;-45
2023/03/07 10:48:06;;;;;;;84.43;45.90;;;;;;;;;;5096816;28;20203;-45
2023/03/07 10:50:55;;;;;;;125.50;64.63;;;;;;;;;;5096639;28;20625;-46
2023/03/07 10:53:27;;;;;;;138.07;65.40;;;;;;;;;;5095868;28;20241;-45
2023/03/07 10:56:10;;;;;;;82.63;45.37;;;;;;;;;;5096556;28;20214;-45
2023/03/07 10:58:37;;;;;;;66.47;36.60;;;;;;;;;;5096549;28;20234;-45
2023/03/07 11:01:07;;;;;;;73.47;39.07;;;;;;;;;;5096738;28;20210;-45
2023/03/07 11:03:37;;;;;;;64.10;35.37;;;;;;;;;;5096549;28;20194;-44
2023/03/07 11:06:29;;;;;;;58.20;33.03;;;;;;;;;;5096367;28;20237;-45
2023/03/07 11:09:16;;;;;;;59.83;34.70;;;;;;;;;;5096310;28;20183;-45
2023/03/07 11:11:52;;;;;;;58.43;33.80;;;;;;;;;;5096268;28;20207;-45
2023/03/07 11:14:20;;;;;;;69.23;41.27;;;;;;;;;;5096487;28;20191;-45
2023/03/07 11:16:54;;;;;;;68.37;37.80;;;;;;;;;;5096405;28;20217;-45
2023/03/07 11:19:32;;;;;;;67.10;39.23;;;;;;;;;;5096210;28;20273;-45
2023/03/07 11:22:02;;;;;;;58.73;33.90;;;;;;;;;;5095586;28;20633;-45
2023/03/07 11:24:39;;;;;;;62.17;36.10;;;;;;;;;;5095187;28;20218;-45
2023/03/07 11:27:19;;;;;;;62.93;34.97;;;;;;;;;;5093527;28;20210;-46
2023/03/07 11:30:05;;;;;;;61.83;34.63;;;;;;;;;;5094212;28;20229;-45
2023/03/07 11:32:35;;;;;;;61.30;35.73;;;;;;;;;;5094461;28;20244;-46
2023/03/07 11:35:06;;;;;;;63.80;34.03;;;;;;;;;;5093249;28;20211;-48
2023/03/07 11:37:38;;;;;;;65.53;37.23;;;;;;;;;;5093324;28;20606;-48
2023/03/07 11:40:37;;;;;;;64.23;39.43;;;;;;;;;;5094182;28;20222;-45
2023/03/07 11:43:19;;;;;;;124.77;62.33;;;;;;;;;;5096047;28;20202;-45
2023/03/07 11:46:31;;;;;;;105.07;53.17;;;;;;;;;;5094994;28;20218;-45
2023/03/07 11:49:11;;;;;;;87.53;48.20;;;;;;;;;;5076547;28;20546;-45
2023/03/07 11:52:07;;;;;;;63.47;39.00;;;;;;;;;;5095643;28;20199;-45
2023/03/07 11:54:55;;;;;;;61.43;35.30;;;;;;;;;;5095525;28;20203;-45
2023/03/07 11:57:28;;;;;;;70.17;38.50;;;;;;;;;;5094969;28;20198;-45
2023/03/07 12:00:14;;;;;;;60.93;34.50;;;;;;;;;;5095884;28;20226;-44
2023/03/07 12:02:59;;;;;;;64.27;36.23;;;;;;;;;;5095353;28;20259;-44
2023/03/07 12:05:32;;;;;;;60.80;35.53;;;;;;;;;;5095111;28;20225;-45
2023/03/07 12:08:32;;;;;;;56.87;33.40;;;;;;;;;;5095613;28;20206;-46
2023/03/07 12:11:11;;;;;;;66.97;37.03;;;;;;;;;;5069680;28;20545;-45
2023/03/07 12:13:59;;;;;;;104.73;48.93;;;;;;;;;;5095701;28;20385;-45
2023/03/07 12:16:26;;;;;;;200.50;86.83;;;;;;;;;;5095311;28;20283;-45
2023/03/07 12:19:19;;;;;;;84.63;45.10;;;;;;;;;;5094595;28;20269;-44
2023/03/07 12:22:31;;;;;;;85.93;44.80;;;;;;;;;;5093447;28;20203;-45
2023/03/07 12:24:58;;;;;;;61.77;34.07;;;;;;;;;;5053004;28;20230;-45
2023/03/07 12:27:35;;;;;;;63.30;35.17;;;;;;;;;;5053104;28;20212;-44
2023/03/07 12:30:34;;;;;;;56.50;33.50;;;;;;;;;;5036768;28;20619;-45
2023/03/07 12:33:03;;;;;;;62.63;33.77;;;;;;;;;;4973598;28;20214;-44
2023/03/07 12:35:48;;;;;;;59.20;35.60;;;;;;;;;;4974147;28;20206;-44
2023/03/07 12:38:39;;;;;;;54.67;33.07;;;;;;;;;;4974445;28;20238;-44
2023/03/07 12:41:38;;;;;;;110.03;49.87;;;;;;;;;;4955063;29;20220;-45
2023/03/07 12:44:13;;;;;;;83.17;41.47;;;;;;;;;;4929546;29;20278;-44
2023/03/07 12:47:03;;;;;;;86.53;43.57;;;;;;;;;;4938095;29;20286;-45
2023/03/07 12:49:36;;;;;;;78.47;42.70;;;;;;;;;;4947629;29;20204;-44
2023/03/07 12:52:29;;;;;;;61.50;33.43;;;;;;;;;;4954938;29;20270;-44
2023/03/07 12:55:30;;;;;;;64.53;34.70;;;;;;;;;;4954868;29;20215;-44
2023/03/07 12:58:36;;;;;;;60.60;35.57;;;;;;;;;;4954101;29;20626;-45
2023/03/07 13:01:11;;;;;;;56.07;33.00;;;;;;;;;;4937087;28;20201;-46
2023/03/07 13:03:54;;;;;;;62.00;33.57;;;;;;;;;;5013113;28;20239;-46
2023/03/07 13:06:23;;;;;;;61.90;35.33;;;;;;;;;;5012869;28;20224;-45
2023/03/07 13:08:53;;;;;;;104.67;49.03;;;;;;;;;;5001253;28;20259;-44
2023/03/07 13:11:23;;;;;;;262.93;85.67;;;;;;;;;;5043447;28;20218;-45
2023/03/07 13:14:01;;;;;;;136.00;61.23;;;;;;;;;;5093414;28;20214;-45
2023/03/07 13:16:41;;;;;;;90.67;51.30;;;;;;;;;;5094565;28;20565;-45
2023/03/07 13:19:33;;;;;;;82.27;47.37;;;;;;;;;;5094687;28;20237;-48
2023/03/07 13:22:24;;;;;;;85.40;45.27;;;;;;;;;;5094705;28;20268;-47
2023/03/07 13:24:55;;;;;;;76.90;39.30;;;;;;;;;;5075043;28;20237;-50
2023/03/07 13:27:32;;;;;;;109.77;56.80;;;;;;;;;;5094558;28;20625;-52
2023/03/07 13:30:11;;;;;;;72.87;39.60;;;;;;;;;;5093823;28;20187;-45
2023/03/07 13:32:50;;;;;;;102.13;55.37;;;;;;;;;;5094597;28;20195;-45
2023/03/07 13:35:29;;;;;;;83.60;45.67;;;;;;;;;;5094601;28;20217;-48
2023/03/07 13:38:12;;;;;;;128.90;61.60;;;;;;;;;;5094468;28;20297;-45
2023/03/07 13:40:48;;;;;;;107.30;52.97;;;;;;;;;;5094072;28;20201;-45
2023/03/07 13:43:21;;;;;;;87.00;49.97;;;;;;;;;;5094241;28;20221;-44
2023/03/07 13:45:55;;;;;;;61.73;38.10;;;;;;;;;;5097027;28;20221;-46
2023/03/07 13:48:29;;;;;;;51.37;32.53;;;;;;;;;;5097684;28;20190;-47
2023/03/07 13:50:59;;;;;;;50.63;33.63;;;;;;;;;;5097875;28;20256;-48
2023/03/07 13:53:26;;;;;;;62.03;37.27;;;;;;;;;;5097764;28;20210;-45
2023/03/07 13:55:56;;;;;;;45.13;28.80;;;;;;;;;;5097749;28;20213;-44
2023/03/07 13:58:36;;;;;;;46.33;29.37;;;;;;;;;;5097851;28;20532;-44
2023/03/07 14:01:13;;;;;;;46.73;29.40;;;;;;;;;;5097688;28;20206;-44
2023/03/07 14:03:49;;;;;;;41.60;24.73;;;;;;;;;;5096745;28;20195;-44
2023/03/07 14:06:19;;;;;;;120.30;54.13;;;;;;;;;;5096645;28;20235;-44
2023/03/07 14:08:47;;;;;;;113.37;55.20;;;;;;;;;;5098187;28;20206;-44
2023/03/07 14:11:44;;;;;;;70.13;39.73;;;;;;;;;;5096811;28;20206;-45
2023/03/07 14:14:13;;;;;;;79.07;47.37;;;;;;;;;;5092476;28;20221;-45
2023/03/07 14:16:41;;;;;;;41.63;25.43;;;;;;;;;;5077177;28;20203;-48
2023/03/07 14:19:14;;;;;;;44.43;23.23;;;;;;;;;;5086259;28;20300;-44
2023/03/07 14:22:20;;;;;;;43.47;27.20;;;;;;;;;;5075062;28;20233;-46
2023/03/07 14:24:55;;;;;;;146.57;77.00;;;;;;;;;;5074076;28;20231;-47
2023/03/07 14:27:23;;;;;;;400.70;259.90;;;;;;;;;;5074125;28;20276;-45
2023/03/07 14:29:55;;;;;;;357.37;223.03;;;;;;;;;;5074195;28;20222;-44
2023/03/07 14:32:26;;;;;;;160.07;108.07;;;;;;;;;;5069983;28;20306;-45
2023/03/07 14:34:54;;;;;;;85.20;56.47;;;;;;;;;;5073676;28;20219;-43
2023/03/07 14:37:25;;;;;;;118.30;65.10;;;;;;;;;;5073501;28;20280;-44
2023/03/07 14:39:58;;;;;;;71.30;41.30;;;;;;;;;;5057773;28;20219;-46
2023/03/07 14:42:46;;;;;;;149.50;61.07;;;;;;;;;;5073339;28;20641;-45
2023/03/07 14:45:14;;;;;;;90.93;43.37;;;;;;;;;;5063162;28;20224;-46